Awosting, New Jersey
Current Conditions -  °F | °C
As of 4:53 AM on Friday 24 Oct 2014 (Local Time) from KFWN Reporting Station
Overcast Overcast  
Wind Chill: 11°   Ceiling: 2000
Heat Index: 11°   Visibility: 10mi
Dew Point:   Wind: 3mph
Humidity: 69%   Direction: 340°NNW
Pressure: 29.81"   Gusts: NA
Location:  41.1652°N, 74.3769°W
Report Text: KFWN 240853Z AUTO 34003KT 10SM OVC020 11/06 A2981 RMK AO2 SLP095 T01110056 53001
Loading
Personal Weather Stations






























Interactive Weather Map
Tropical Storm Tracking
New forecast layout! Learn more

10-Day Weather Forecast

Advertisements
Track Severe Weather on mobile